sensor_id;sensor_type;location;lat;lon;timestamp;temperature;humidity
14873;DHT22;7528;48.576;19.122;2022-07-30T00:03:32;23.50;82.40
14873;DHT22;7528;48.576;19.122;2022-07-30T00:08:36;23.50;83.60
14873;DHT22;7528;48.576;19.122;2022-07-30T00:13:39;23.50;83.20
14873;DHT22;7528;48.576;19.122;2022-07-30T00:18:42;23.30;83.50
14873;DHT22;7528;48.576;19.122;2022-07-30T00:23:47;23.30;83.90
14873;DHT22;7528;48.576;19.122;2022-07-30T00:28:50;23.30;83.50
14873;DHT22;7528;48.576;19.122;2022-07-30T00:33:53;23.40;83.70
14873;DHT22;7528;48.576;19.122;2022-07-30T00:38:58;23.40;83.50
14873;DHT22;7528;48.576;19.122;2022-07-30T00:44:01;23.30;83.40
14873;DHT22;7528;48.576;19.122;2022-07-30T00:49:04;23.20;83.90
14873;DHT22;7528;48.576;19.122;2022-07-30T00:54:09;23.20;84.40
14873;DHT22;7528;48.576;19.122;2022-07-30T00:59:12;23.30;84.90
14873;DHT22;7528;48.576;19.122;2022-07-30T01:04:15;23.20;84.80
14873;DHT22;7528;48.576;19.122;2022-07-30T01:09:21;23.30;84.30
14873;DHT22;7528;48.576;19.122;2022-07-30T01:14:24;23.30;84.50
14873;DHT22;7528;48.576;19.122;2022-07-30T01:19:33;23.30;85.00
14873;DHT22;7528;48.576;19.122;2022-07-30T01:25:03;23.20;85.60
14873;DHT22;7528;48.576;19.122;2022-07-30T01:30:13;23.20;85.80
14873;DHT22;7528;48.576;19.122;2022-07-30T01:35:17;23.20;85.80
14873;DHT22;7528;48.576;19.122;2022-07-30T01:40:23;23.20;85.90
14873;DHT22;7528;48.576;19.122;2022-07-30T01:45:29;23.20;85.70
14873;DHT22;7528;48.576;19.122;2022-07-30T01:50:33;23.20;85.80
14873;DHT22;7528;48.576;19.122;2022-07-30T01:55:39;23.20;85.80
14873;DHT22;7528;48.576;19.122;2022-07-30T02:00:45;23.10;86.00
14873;DHT22;7528;48.576;19.122;2022-07-30T02:05:55;23.10;86.90
14873;DHT22;7528;48.576;19.122;2022-07-30T02:11:03;23.10;86.70
14873;DHT22;7528;48.576;19.122;2022-07-30T02:16:13;23.10;86.90
14873;DHT22;7528;48.576;19.122;2022-07-30T02:21:19;23.10;86.90
14873;DHT22;7528;48.576;19.122;2022-07-30T02:26:24;23.10;86.60
14873;DHT22;7528;48.576;19.122;2022-07-30T02:31:30;23.10;87.20
14873;DHT22;7528;48.576;19.122;2022-07-30T02:36:36;23.10;87.60
14873;DHT22;7528;48.576;19.122;2022-07-30T02:41:42;23.10;87.70
14873;DHT22;7528;48.576;19.122;2022-07-30T02:46:49;23.10;87.40
14873;DHT22;7528;48.576;19.122;2022-07-30T02:51:53;23.10;87.70
14873;DHT22;7528;48.576;19.122;2022-07-30T02:56:59;23.00;88.10
14873;DHT22;7528;48.576;19.122;2022-07-30T03:02:06;23.00;87.80
14873;DHT22;7528;48.576;19.122;2022-07-30T03:07:10;23.00;88.00
14873;DHT22;7528;48.576;19.122;2022-07-30T03:12:15;23.00;88.20
14873;DHT22;7528;48.576;19.122;2022-07-30T03:17:21;22.90;87.70
14873;DHT22;7528;48.576;19.122;2022-07-30T03:22:26;22.80;87.90
14873;DHT22;7528;48.576;19.122;2022-07-30T03:27:31;22.80;88.80
14873;DHT22;7528;48.576;19.122;2022-07-30T03:32:36;22.80;88.50
14873;DHT22;7528;48.576;19.122;2022-07-30T03:37:40;22.70;88.90
14873;DHT22;7528;48.576;19.122;2022-07-30T03:42:45;22.70;89.30
14873;DHT22;7528;48.576;19.122;2022-07-30T03:47:54;22.60;89.80
14873;DHT22;7528;48.576;19.122;2022-07-30T03:52:59;22.60;90.00
14873;DHT22;7528;48.576;19.122;2022-07-30T03:58:05;22.60;90.10
14873;DHT22;7528;48.576;19.122;2022-07-30T04:03:12;22.70;90.20
14873;DHT22;7528;48.576;19.122;2022-07-30T04:08:23;22.60;90.10
14873;DHT22;7528;48.576;19.122;2022-07-30T04:13:29;22.60;90.10
14873;DHT22;7528;48.576;19.122;2022-07-30T04:18:37;22.60;89.90
14873;DHT22;7528;48.576;19.122;2022-07-30T04:23:42;22.60;90.10
14873;DHT22;7528;48.576;19.122;2022-07-30T04:28:46;22.70;90.00
14873;DHT22;7528;48.576;19.122;2022-07-30T04:33:51;22.60;89.50
14873;DHT22;7528;48.576;19.122;2022-07-30T04:39:03;22.50;89.90
14873;DHT22;7528;48.576;19.122;2022-07-30T04:44:06;22.50;89.40
14873;DHT22;7528;48.576;19.122;2022-07-30T04:49:18;22.60;90.10
14873;DHT22;7528;48.576;19.122;2022-07-30T04:54:23;22.60;89.90
14873;DHT22;7528;48.576;19.122;2022-07-30T04:59:27;22.70;89.90
14873;DHT22;7528;48.576;19.122;2022-07-30T05:04:33;22.70;89.60
14873;DHT22;7528;48.576;19.122;2022-07-30T05:09:38;22.80;89.70
14873;DHT22;7528;48.576;19.122;2022-07-30T05:14:41;22.90;90.10
14873;DHT22;7528;48.576;19.122;2022-07-30T05:19:46;23.00;90.00
14873;DHT22;7528;48.576;19.122;2022-07-30T05:24:49;23.10;88.70
14873;DHT22;7528;48.576;19.122;2022-07-30T05:29:53;23.10;88.20
14873;DHT22;7528;48.576;19.122;2022-07-30T05:34:58;23.20;87.50
14873;DHT22;7528;48.576;19.122;2022-07-30T05:40:03;23.20;87.00
14873;DHT22;7528;48.576;19.122;2022-07-30T05:45:26;23.20;87.80
14873;DHT22;7528;48.576;19.122;2022-07-30T05:50:32;23.20;88.80
14873;DHT22;7528;48.576;19.122;2022-07-30T05:55:35;23.20;89.00
14873;DHT22;7528;48.576;19.122;2022-07-30T06:00:47;23.30;88.70
14873;DHT22;7528;48.576;19.122;2022-07-30T06:05:51;23.30;89.60
14873;DHT22;7528;48.576;19.122;2022-07-30T06:10:54;23.20;89.10
14873;DHT22;7528;48.576;19.122;2022-07-30T06:15:58;23.30;90.10
14873;DHT22;7528;48.576;19.122;2022-07-30T06:21:02;23.30;90.00
14873;DHT22;7528;48.576;19.122;2022-07-30T06:26:18;23.30;90.10
14873;DHT22;7528;48.576;19.122;2022-07-30T06:31:22;23.30;90.10
14873;DHT22;7528;48.576;19.122;2022-07-30T06:36:27;23.40;90.20
14873;DHT22;7528;48.576;19.122;2022-07-30T06:41:36;23.50;90.00
14873;DHT22;7528;48.576;19.122;2022-07-30T06:46:40;23.50;89.10
14873;DHT22;7528;48.576;19.122;2022-07-30T06:51:44;23.50;88.80
14873;DHT22;7528;48.576;19.122;2022-07-30T06:56:48;23.60;88.50
14873;DHT22;7528;48.576;19.122;2022-07-30T07:01:51;23.60;88.10
14873;DHT22;7528;48.576;19.122;2022-07-30T07:06:57;23.50;87.50
14873;DHT22;7528;48.576;19.122;2022-07-30T07:12:06;23.50;88.20
14873;DHT22;7528;48.576;19.122;2022-07-30T07:17:12;23.60;89.00
14873;DHT22;7528;48.576;19.122;2022-07-30T07:22:35;23.70;89.60
14873;DHT22;7528;48.576;19.122;2022-07-30T07:27:38;23.70;89.80
14873;DHT22;7528;48.576;19.122;2022-07-30T07:32:41;23.80;89.10
14873;DHT22;7528;48.576;19.122;2022-07-30T07:37:48;23.80;89.30
14873;DHT22;7528;48.576;19.122;2022-07-30T07:42:56;23.90;89.50
14873;DHT22;7528;48.576;19.122;2022-07-30T07:48:00;24.00;87.40
14873;DHT22;7528;48.576;19.122;2022-07-30T07:53:20;24.00;87.20
14873;DHT22;7528;48.576;19.122;2022-07-30T07:58:23;24.10;88.30
14873;DHT22;7528;48.576;19.122;2022-07-30T08:03:26;24.40;83.80
14873;DHT22;7528;48.576;19.122;2022-07-30T08:08:33;24.50;83.30
14873;DHT22;7528;48.576;19.122;2022-07-30T08:14:15;24.50;84.20
14873;DHT22;7528;48.576;19.122;2022-07-30T08:19:36;24.60;83.20
14873;DHT22;7528;48.576;19.122;2022-07-30T08:24:52;24.60;82.50
14873;DHT22;7528;48.576;19.122;2022-07-30T08:29:55;24.70;83.60
14873;DHT22;7528;48.576;19.122;2022-07-30T08:34:58;24.90;82.20
14873;DHT22;7528;48.576;19.122;2022-07-30T08:40:03;25.00;82.30
14873;DHT22;7528;48.576;19.122;2022-07-30T08:45:09;25.10;80.40
14873;DHT22;7528;48.576;19.122;2022-07-30T08:50:14;25.40;81.10
14873;DHT22;7528;48.576;19.122;2022-07-30T08:55:44;25.60;80.10
14873;DHT22;7528;48.576;19.122;2022-07-30T09:00:48;25.70;79.00
14873;DHT22;7528;48.576;19.122;2022-07-30T09:05:51;26.00;79.30
14873;DHT22;7528;48.576;19.122;2022-07-30T09:10:56;26.40;75.50
14873;DHT22;7528;48.576;19.122;2022-07-30T09:15:59;26.70;74.60
14873;DHT22;7528;48.576;19.122;2022-07-30T09:21:15;26.80;71.00
14873;DHT22;7528;48.576;19.122;2022-07-30T09:26:24;27.00;71.70
14873;DHT22;7528;48.576;19.122;2022-07-30T09:31:53;27.30;70.90
14873;DHT22;7528;48.576;19.122;2022-07-30T09:37:19;27.20;69.50
14873;DHT22;7528;48.576;19.122;2022-07-30T09:42:46;27.00;69.70
14873;DHT22;7528;48.576;19.122;2022-07-30T09:47:50;26.80;70.70
14873;DHT22;7528;48.576;19.122;2022-07-30T09:52:54;26.70;72.30
14873;DHT22;7528;48.576;19.122;2022-07-30T09:58:00;26.50;75.20
14873;DHT22;7528;48.576;19.122;2022-07-30T10:03:14;26.20;75.10
14873;DHT22;7528;48.576;19.122;2022-07-30T10:08:41;26.10;75.60
14873;DHT22;7528;48.576;19.122;2022-07-30T10:13:49;25.80;74.30
14873;DHT22;7528;48.576;19.122;2022-07-30T10:18:55;25.50;75.80
14873;DHT22;7528;48.576;19.122;2022-07-30T10:24:36;25.40;76.60
14873;DHT22;7528;48.576;19.122;2022-07-30T10:29:56;25.20;77.10
14873;DHT22;7528;48.576;19.122;2022-07-30T10:35:00;25.10;78.20
14873;DHT22;7528;48.576;19.122;2022-07-30T10:40:09;25.00;77.90
14873;DHT22;7528;48.576;19.122;2022-07-30T10:45:19;24.90;78.30
14873;DHT22;7528;48.576;19.122;2022-07-30T10:50:25;24.90;78.10
14873;DHT22;7528;48.576;19.122;2022-07-30T10:55:30;24.80;79.50
14873;DHT22;7528;48.576;19.122;2022-07-30T11:00:58;24.70;79.30
14873;DHT22;7528;48.576;19.122;2022-07-30T11:06:23;24.70;80.30
14873;DHT22;7528;48.576;19.122;2022-07-30T11:11:46;24.80;80.80
14873;DHT22;7528;48.576;19.122;2022-07-30T11:16:59;24.80;81.10
14873;DHT22;7528;48.576;19.122;2022-07-30T11:22:23;24.80;81.30
14873;DHT22;7528;48.576;19.122;2022-07-30T11:27:38;24.70;81.60
14873;DHT22;7528;48.576;19.122;2022-07-30T11:32:43;24.70;82.10
14873;DHT22;7528;48.576;19.122;2022-07-30T11:38:01;24.60;82.30
14873;DHT22;7528;48.576;19.122;2022-07-30T11:43:21;24.70;83.40
14873;DHT22;7528;48.576;19.122;2022-07-30T11:48:27;24.70;82.10
14873;DHT22;7528;48.576;19.122;2022-07-30T11:53:31;24.70;83.50
14873;DHT22;7528;48.576;19.122;2022-07-30T11:58:36;24.70;83.80
14873;DHT22;7528;48.576;19.122;2022-07-30T12:03:43;24.70;82.80
14873;DHT22;7528;48.576;19.122;2022-07-30T12:08:47;24.70;83.70
14873;DHT22;7528;48.576;19.122;2022-07-30T12:13:55;24.70;83.30
14873;DHT22;7528;48.576;19.122;2022-07-30T12:19:05;24.70;84.70
14873;DHT22;7528;48.576;19.122;2022-07-30T12:24:08;24.80;82.80
14873;DHT22;7528;48.576;19.122;2022-07-30T12:29:12;24.70;82.90
14873;DHT22;7528;48.576;19.122;2022-07-30T12:34:20;24.70;81.60
14873;DHT22;7528;48.576;19.122;2022-07-30T12:39:25;24.70;83.50
14873;DHT22;7528;48.576;19.122;2022-07-30T12:44:39;24.70;83.50
14873;DHT22;7528;48.576;19.122;2022-07-30T12:49:47;24.80;82.90
14873;DHT22;7528;48.576;19.122;2022-07-30T12:55:03;24.80;82.10
14873;DHT22;7528;48.576;19.122;2022-07-30T13:00:07;24.80;83.00
14873;DHT22;7528;48.576;19.122;2022-07-30T13:05:14;24.90;83.40
14873;DHT22;7528;48.576;19.122;2022-07-30T13:10:18;24.90;83.00
14873;DHT22;7528;48.576;19.122;2022-07-30T13:15:21;24.90;83.50
14873;DHT22;7528;48.576;19.122;2022-07-30T13:27:03;24.90;83.60
14873;DHT22;7528;48.576;19.122;2022-07-30T13:32:08;25.00;82.80
14873;DHT22;7528;48.576;19.122;2022-07-30T13:37:11;25.00;82.50
14873;DHT22;7528;48.576;19.122;2022-07-30T13:42:15;25.10;80.60
14873;DHT22;7528;48.576;19.122;2022-07-30T13:47:18;25.20;82.30
14873;DHT22;7528;48.576;19.122;2022-07-30T13:52:21;25.30;82.10
14873;DHT22;7528;48.576;19.122;2022-07-30T13:57:26;25.50;84.00
14873;DHT22;7528;48.576;19.122;2022-07-30T14:02:30;25.80;83.80
14873;DHT22;7528;48.576;19.122;2022-07-30T14:07:34;26.10;81.00
14873;DHT22;7528;48.576;19.122;2022-07-30T14:12:39;26.30;78.40
14873;DHT22;7528;48.576;19.122;2022-07-30T14:17:42;26.40;78.70
14873;DHT22;7528;48.576;19.122;2022-07-30T14:22:45;26.40;74.60
14873;DHT22;7528;48.576;19.122;2022-07-30T14:27:50;26.20;74.80
14873;DHT22;7528;48.576;19.122;2022-07-30T14:32:53;26.10;73.50
14873;DHT22;7528;48.576;19.122;2022-07-30T14:37:56;26.10;75.30
14873;DHT22;7528;48.576;19.122;2022-07-30T14:43:01;26.10;77.90
14873;DHT22;7528;48.576;19.122;2022-07-30T14:48:04;26.00;76.00
14873;DHT22;7528;48.576;19.122;2022-07-30T14:53:08;26.00;76.00
14873;DHT22;7528;48.576;19.122;2022-07-30T14:58:12;26.00;75.80
14873;DHT22;7528;48.576;19.122;2022-07-30T15:03:15;26.10;75.00
14873;DHT22;7528;48.576;19.122;2022-07-30T15:08:18;26.00;74.30
14873;DHT22;7528;48.576;19.122;2022-07-30T15:13:23;25.90;75.20
14873;DHT22;7528;48.576;19.122;2022-07-30T15:18:26;25.90;75.60
14873;DHT22;7528;48.576;19.122;2022-07-30T15:23:29;25.90;75.20
14873;DHT22;7528;48.576;19.122;2022-07-30T15:28:34;25.80;76.70
14873;DHT22;7528;48.576;19.122;2022-07-30T15:33:37;25.80;77.20
14873;DHT22;7528;48.576;19.122;2022-07-30T15:38:43;25.80;75.50
14873;DHT22;7528;48.576;19.122;2022-07-30T15:43:48;25.80;77.20
14873;DHT22;7528;48.576;19.122;2022-07-30T15:48:51;25.90;77.70
14873;DHT22;7528;48.576;19.122;2022-07-30T15:53:55;26.00;75.70
14873;DHT22;7528;48.576;19.122;2022-07-30T15:58:59;25.90;74.60
14873;DHT22;7528;48.576;19.122;2022-07-30T16:04:03;25.90;73.00
14873;DHT22;7528;48.576;19.122;2022-07-30T16:09:06;25.90;74.30
14873;DHT22;7528;48.576;19.122;2022-07-30T16:14:11;26.00;77.20
14873;DHT22;7528;48.576;19.122;2022-07-30T16:19:14;26.10;75.40
14873;DHT22;7528;48.576;19.122;2022-07-30T16:24:17;26.10;74.10
14873;DHT22;7528;48.576;19.122;2022-07-30T16:29:22;26.10;72.00
14873;DHT22;7528;48.576;19.122;2022-07-30T16:34:25;26.00;71.60
14873;DHT22;7528;48.576;19.122;2022-07-30T16:39:28;25.90;70.20
14873;DHT22;7528;48.576;19.122;2022-07-30T16:44:33;26.00;73.70
14873;DHT22;7528;48.576;19.122;2022-07-30T16:49:36;26.00;71.40
14873;DHT22;7528;48.576;19.122;2022-07-30T16:54:39;26.00;73.80
14873;DHT22;7528;48.576;19.122;2022-07-30T16:59:44;25.90;75.40
14873;DHT22;7528;48.576;19.122;2022-07-30T17:04:47;25.80;73.90
14873;DHT22;7528;48.576;19.122;2022-07-30T17:09:50;25.70;74.80
14873;DHT22;7528;48.576;19.122;2022-07-30T17:14:55;25.60;74.80
14873;DHT22;7528;48.576;19.122;2022-07-30T17:19:59;25.50;74.00
14873;DHT22;7528;48.576;19.122;2022-07-30T17:25:05;25.40;74.90
14873;DHT22;7528;48.576;19.122;2022-07-30T17:30:10;25.20;75.50
14873;DHT22;7528;48.576;19.122;2022-07-30T17:35:14;25.10;75.60
14873;DHT22;7528;48.576;19.122;2022-07-30T17:40:17;25.10;74.60
14873;DHT22;7528;48.576;19.122;2022-07-30T17:45:21;25.10;74.90
14873;DHT22;7528;48.576;19.122;2022-07-30T17:50:24;24.90;75.00
14873;DHT22;7528;48.576;19.122;2022-07-30T17:55:27;24.80;75.00
14873;DHT22;7528;48.576;19.122;2022-07-30T18:00:32;24.70;75.50
14873;DHT22;7528;48.576;19.122;2022-07-30T18:05:36;24.60;76.40
14873;DHT22;7528;48.576;19.122;2022-07-30T18:10:39;24.50;75.50
14873;DHT22;7528;48.576;19.122;2022-07-30T18:15:44;24.40;75.50
14873;DHT22;7528;48.576;19.122;2022-07-30T18:20:47;24.40;75.70
14873;DHT22;7528;48.576;19.122;2022-07-30T18:25:50;24.20;75.80
14873;DHT22;7528;48.576;19.122;2022-07-30T18:30:54;24.20;75.70
14873;DHT22;7528;48.576;19.122;2022-07-30T18:35:58;24.10;75.70
14873;DHT22;7528;48.576;19.122;2022-07-30T18:41:01;24.10;75.80
14873;DHT22;7528;48.576;19.122;2022-07-30T18:46:05;24.00;75.80
14873;DHT22;7528;48.576;19.122;2022-07-30T18:51:09;24.00;76.40
14873;DHT22;7528;48.576;19.122;2022-07-30T18:56:12;23.80;77.10
14873;DHT22;7528;48.576;19.122;2022-07-30T19:01:16;23.60;78.50
14873;DHT22;7528;48.576;19.122;2022-07-30T19:06:20;23.50;79.20
14873;DHT22;7528;48.576;19.122;2022-07-30T19:11:23;23.50;79.60
14873;DHT22;7528;48.576;19.122;2022-07-30T19:16:28;23.50;79.90
14873;DHT22;7528;48.576;19.122;2022-07-30T19:21:31;23.50;80.30
14873;DHT22;7528;48.576;19.122;2022-07-30T19:26:34;23.50;81.40
14873;DHT22;7528;48.576;19.122;2022-07-30T19:31:40;23.40;81.10
14873;DHT22;7528;48.576;19.122;2022-07-30T19:36:43;23.30;81.30
14873;DHT22;7528;48.576;19.122;2022-07-30T19:41:47;23.30;81.50
14873;DHT22;7528;48.576;19.122;2022-07-30T19:46:51;23.30;80.90
14873;DHT22;7528;48.576;19.122;2022-07-30T19:51:54;23.30;80.20
14873;DHT22;7528;48.576;19.122;2022-07-30T19:56:58;23.30;80.40
14873;DHT22;7528;48.576;19.122;2022-07-30T20:02:02;23.30;79.80
14873;DHT22;7528;48.576;19.122;2022-07-30T20:07:05;23.30;79.90
14873;DHT22;7528;48.576;19.122;2022-07-30T20:12:09;23.30;80.80
14873;DHT22;7528;48.576;19.122;2022-07-30T20:17:14;23.20;79.60
14873;DHT22;7528;48.576;19.122;2022-07-30T20:22:19;23.20;80.10
14873;DHT22;7528;48.576;19.122;2022-07-30T20:27:22;23.20;80.70
14873;DHT22;7528;48.576;19.122;2022-07-30T20:32:26;23.20;81.10
14873;DHT22;7528;48.576;19.122;2022-07-30T20:37:30;23.30;80.40
14873;DHT22;7528;48.576;19.122;2022-07-30T20:42:33;23.20;79.50
14873;DHT22;7528;48.576;19.122;2022-07-30T20:47:38;23.10;80.20
14873;DHT22;7528;48.576;19.122;2022-07-30T20:52:41;23.10;80.60
14873;DHT22;7528;48.576;19.122;2022-07-30T20:57:45;23.10;80.50
14873;DHT22;7528;48.576;19.122;2022-07-30T21:02:49;23.10;81.90
14873;DHT22;7528;48.576;19.122;2022-07-30T21:07:52;23.10;81.60
14873;DHT22;7528;48.576;19.122;2022-07-30T21:12:56;23.10;81.80
14873;DHT22;7528;48.576;19.122;2022-07-30T21:18:01;23.10;81.60
14873;DHT22;7528;48.576;19.122;2022-07-30T21:23:07;23.00;80.90
14873;DHT22;7528;48.576;19.122;2022-07-30T21:28:11;23.00;81.00
14873;DHT22;7528;48.576;19.122;2022-07-30T21:33:16;23.00;80.50
14873;DHT22;7528;48.576;19.122;2022-07-30T21:38:19;23.00;81.70
14873;DHT22;7528;48.576;19.122;2022-07-30T21:43:22;23.00;82.40
14873;DHT22;7528;48.576;19.122;2022-07-30T21:48:26;22.90;83.20
14873;DHT22;7528;48.576;19.122;2022-07-30T21:53:30;22.90;83.60
14873;DHT22;7528;48.576;19.122;2022-07-30T21:58:33;22.90;84.10
14873;DHT22;7528;48.576;19.122;2022-07-30T22:03:37;22.80;84.10
14873;DHT22;7528;48.576;19.122;2022-07-30T22:08:40;22.80;84.00
14873;DHT22;7528;48.576;19.122;2022-07-30T22:13:44;22.80;83.50
14873;DHT22;7528;48.576;19.122;2022-07-30T22:18:48;22.80;83.40
14873;DHT22;7528;48.576;19.122;2022-07-30T22:23:54;22.70;83.40
14873;DHT22;7528;48.576;19.122;2022-07-30T22:28:57;22.70;83.30
14873;DHT22;7528;48.576;19.122;2022-07-30T22:34:03;22.60;83.80
14873;DHT22;7528;48.576;19.122;2022-07-30T22:39:06;22.60;83.60
14873;DHT22;7528;48.576;19.122;2022-07-30T22:44:09;22.50;83.70
14873;DHT22;7528;48.576;19.122;2022-07-30T22:49:13;22.50;83.40
14873;DHT22;7528;48.576;19.122;2022-07-30T22:54:16;22.40;82.90
14873;DHT22;7528;48.576;19.122;2022-07-30T22:59:20;22.40;83.00
14873;DHT22;7528;48.576;19.122;2022-07-30T23:04:24;22.40;83.90
14873;DHT22;7528;48.576;19.122;2022-07-30T23:09:27;22.40;84.10
14873;DHT22;7528;48.576;19.122;2022-07-30T23:14:30;22.40;83.50
14873;DHT22;7528;48.576;19.122;2022-07-30T23:19:35;22.40;83.50
14873;DHT22;7528;48.576;19.122;2022-07-30T23:24:38;22.40;83.60
14873;DHT22;7528;48.576;19.122;2022-07-30T23:29:41;22.30;83.50
14873;DHT22;7528;48.576;19.122;2022-07-30T23:34:46;22.20;83.00
14873;DHT22;7528;48.576;19.122;2022-07-30T23:39:48;22.20;83.20
14873;DHT22;7528;48.576;19.122;2022-07-30T23:44:52;22.10;83.40
14873;DHT22;7528;48.576;19.122;2022-07-30T23:49:57;22.10;83.50
14873;DHT22;7528;48.576;19.122;2022-07-30T23:55:00;22.00;83.50
